createdAt,value
2022-08-01T00:00:26.107Z,97.40
2022-08-01T00:03:27.731Z,97.50
2022-08-01T00:06:29.369Z,97.50
2022-08-01T00:09:30.984Z,97.60
2022-08-01T00:12:32.700Z,97.60
2022-08-01T00:15:34.731Z,97.60
2022-08-01T00:18:36.629Z,97.70
2022-08-01T00:21:38.228Z,97.80
2022-08-01T00:24:53.783Z,97.70
2022-08-01T00:27:55.625Z,97.70
2022-08-01T00:30:57.212Z,97.10
2022-08-01T00:33:58.911Z,98.20
2022-08-01T00:37:00.828Z,97.60
2022-08-01T00:40:02.455Z,97.80
2022-08-01T00:43:04.530Z,97.80
2022-08-01T00:46:06.260Z,97.80
2022-08-01T00:49:10.432Z,98.00
2022-08-01T00:52:13.055Z,97.90
2022-08-01T00:55:15.327Z,98.00
2022-08-01T00:58:17.779Z,97.90
2022-08-01T01:01:21.663Z,97.90
2022-08-01T01:04:23.887Z,98.00
2022-08-01T01:08:00.144Z,98.10
2022-08-01T01:15:01.261Z,97.20
2022-08-01T01:18:13.896Z,97.20
2022-08-01T01:21:51.755Z,98.40
2022-08-01T01:25:05.516Z,97.30
2022-08-01T01:28:32.592Z,98.20
2022-08-01T01:31:42.703Z,97.40
2022-08-01T01:34:48.537Z,98.20
2022-08-01T01:37:54.086Z,98.50
2022-08-01T01:40:56.976Z,98.20
2022-08-01T01:44:01.241Z,98.50
2022-08-01T01:47:03.943Z,98.20
2022-08-01T01:50:09.350Z,98.20
2022-08-01T01:53:15.166Z,98.00
2022-08-01T01:56:19.151Z,98.20
2022-08-01T01:59:25.883Z,98.20
2022-08-01T02:02:28.871Z,98.20
2022-08-01T02:05:31.063Z,98.30
2022-08-01T02:08:34.947Z,98.30
2022-08-01T02:11:39.213Z,98.20
2022-08-01T02:15:02.672Z,98.40
2022-08-01T02:18:05.729Z,98.30
2022-08-01T02:21:12.814Z,98.30
2022-08-01T02:24:19.680Z,98.40
2022-08-01T02:27:44.880Z,98.50
2022-08-01T02:30:49.570Z,97.70
2022-08-01T02:34:03.075Z,98.50
2022-08-01T02:37:05.748Z,98.60
2022-08-01T02:40:10.238Z,98.50
2022-08-01T02:43:21.699Z,98.60
2022-08-01T02:46:39.437Z,98.60
2022-08-01T02:49:46.272Z,97.90
2022-08-01T02:52:52.232Z,98.50
2022-08-01T02:55:55.619Z,98.60
2022-08-01T02:58:57.319Z,98.50
2022-08-01T03:02:03.093Z,98.50
2022-08-01T03:05:06.023Z,98.60
2022-08-01T03:08:11.931Z,98.30
2022-08-01T03:11:17.775Z,98.70
2022-08-01T03:14:22.440Z,98.80
2022-08-01T03:17:27.638Z,98.70
2022-08-01T03:20:31.926Z,98.60
2022-08-01T03:23:38.017Z,98.60
2022-08-01T03:26:41.228Z,98.60
2022-08-01T03:29:44.490Z,98.60
2022-08-01T03:32:47.094Z,98.60
2022-08-01T03:35:51.188Z,98.50
2022-08-01T03:38:54.580Z,98.70
2022-08-01T03:42:02.241Z,98.70
2022-08-01T03:45:10.319Z,99.40
2022-08-01T03:48:18.402Z,98.80
2022-08-01T03:51:22.157Z,98.90
2022-08-01T03:54:28.971Z,98.80
2022-08-01T03:57:36.679Z,98.90
2022-08-01T04:00:40.445Z,98.80
2022-08-01T04:03:43.150Z,98.90
2022-08-01T04:06:45.819Z,98.90
2022-08-01T04:09:47.396Z,99.00
2022-08-01T04:12:49.392Z,98.90
2022-08-01T04:15:50.956Z,99.10
2022-08-01T04:18:52.610Z,99.40
2022-08-01T04:21:54.254Z,99.00
2022-08-01T04:24:58.098Z,99.00
2022-08-01T04:28:01.256Z,99.20
2022-08-01T04:31:06.607Z,99.20
2022-08-01T04:34:10.951Z,99.10
2022-08-01T04:37:13.835Z,99.20
2022-08-01T04:40:16.947Z,99.10
2022-08-01T04:43:19.741Z,99.20
2022-08-01T04:46:22.395Z,99.90
2022-08-01T04:49:25.430Z,99.30
2022-08-01T04:52:37.360Z,99.10
2022-08-01T04:55:38.977Z,98.40
2022-08-01T04:58:41.975Z,99.00
2022-08-01T05:01:43.607Z,99.00
2022-08-01T05:04:47.046Z,99.60
2022-08-01T05:07:48.686Z,99.30
2022-08-01T05:10:50.383Z,99.30
2022-08-01T05:13:52.452Z,99.40
2022-08-01T05:16:54.322Z,99.40
2022-08-01T05:19:55.902Z,99.20
2022-08-01T05:22:58.130Z,99.10
2022-08-01T05:25:59.714Z,99.10
2022-08-01T05:29:01.557Z,99.40
2022-08-01T05:32:04.155Z,99.10
2022-08-01T05:35:06.749Z,99.00
2022-08-01T05:38:08.308Z,98.70
2022-08-01T05:41:15.699Z,98.90
2022-08-01T05:44:17.404Z,98.90
2022-08-01T05:47:19.324Z,99.00
2022-08-01T05:50:20.938Z,98.90
2022-08-01T05:53:22.559Z,98.90
2022-08-01T05:56:24.292Z,98.90
2022-08-01T05:59:26.390Z,98.80
2022-08-01T06:02:28.795Z,98.80
2022-08-01T06:05:30.497Z,98.90
2022-08-01T06:08:32.379Z,98.60
2022-08-01T06:11:34.039Z,98.60
2022-08-01T06:14:35.696Z,98.50
2022-08-01T06:17:37.289Z,98.50
2022-08-01T06:20:38.973Z,98.50
2022-08-01T06:23:42.342Z,98.40
2022-08-01T06:26:43.974Z,98.30
2022-08-01T06:29:50.409Z,98.20
2022-08-01T06:33:00.823Z,98.20
2022-08-01T06:36:02.461Z,98.00
2022-08-01T06:39:04.113Z,98.40
2022-08-01T06:42:05.955Z,98.40
2022-08-01T06:45:10.515Z,98.30
2022-08-01T06:48:12.167Z,98.20
2022-08-01T06:51:17.623Z,98.30
2022-08-01T06:54:19.471Z,98.10
2022-08-01T06:57:21.087Z,98.00
2022-08-01T07:00:24.346Z,98.00
2022-08-01T07:03:26.382Z,98.10
2022-08-01T07:06:29.409Z,98.20
2022-08-01T07:09:31.066Z,97.80
2022-08-01T07:12:34.149Z,97.80
2022-08-01T07:15:35.769Z,97.80
2022-08-01T07:18:37.461Z,97.50
2022-08-01T07:21:41.336Z,97.50
2022-08-01T07:24:45.893Z,97.40
2022-08-01T07:27:47.831Z,97.30
2022-08-01T07:30:49.833Z,97.30
2022-08-01T07:33:51.869Z,96.40
2022-08-01T07:36:53.871Z,97.30
2022-08-01T07:39:55.547Z,96.60
2022-08-01T07:42:57.190Z,96.60
2022-08-01T07:45:58.772Z,96.80
2022-08-01T07:49:00.520Z,96.80
2022-08-01T07:52:04.288Z,97.10
2022-08-01T07:55:06.897Z,96.40
2022-08-01T07:58:08.628Z,96.10
2022-08-01T08:01:10.349Z,96.00
2022-08-01T08:04:11.959Z,95.80
2022-08-01T08:07:13.507Z,95.60
2022-08-01T08:10:15.113Z,96.00
2022-08-01T08:13:16.747Z,96.00
2022-08-01T08:16:21.752Z,96.20
2022-08-01T08:19:37.317Z,95.30
2022-08-01T08:22:40.334Z,95.00
2022-08-01T08:25:41.898Z,95.10
2022-08-01T08:28:43.559Z,95.40
2022-08-01T08:31:51.709Z,95.80
2022-08-01T08:34:54.020Z,95.60
2022-08-01T08:37:55.943Z,95.50
2022-08-01T08:41:00.696Z,98.00
2022-08-01T08:44:03.685Z,95.00
2022-08-01T08:47:07.045Z,95.00
2022-08-01T08:50:11.295Z,94.50
2022-08-01T08:53:18.321Z,95.50
2022-08-01T08:56:21.601Z,95.10
2022-08-01T08:59:25.371Z,95.00
2022-08-01T09:02:27.055Z,94.70
2022-08-01T09:05:38.571Z,95.00
2022-08-01T09:08:41.150Z,94.80
2022-08-01T09:11:42.754Z,95.50
2022-08-01T09:14:47.364Z,94.60
2022-08-01T09:17:48.993Z,94.40
2022-08-01T09:20:50.589Z,94.20
2022-08-01T09:23:55.056Z,93.80
2022-08-01T09:26:57.518Z,93.70
2022-08-01T09:30:23.709Z,93.70
2022-08-01T09:33:58.836Z,93.50
2022-08-01T09:37:03.235Z,92.80
2022-08-01T09:40:05.444Z,93.00
2022-08-01T09:43:15.066Z,92.20
2022-08-01T09:46:17.501Z,92.30
2022-08-01T09:49:50.799Z,92.60
2022-08-01T09:52:59.016Z,92.70
2022-08-01T09:56:12.451Z,92.70
2022-08-01T09:59:19.314Z,93.30
2022-08-01T10:02:44.850Z,92.90
2022-08-01T10:05:55.471Z,92.10
2022-08-01T10:09:02.355Z,92.60
2022-08-01T10:12:15.875Z,92.90
2022-08-01T10:15:37.376Z,93.80
2022-08-01T10:18:42.610Z,93.20
2022-08-01T10:21:56.601Z,93.50
2022-08-01T10:25:05.528Z,93.20
2022-08-01T10:28:17.889Z,92.10
2022-08-01T10:31:20.512Z,91.40
2022-08-01T10:34:34.713Z,91.50
2022-08-01T10:37:51.856Z,91.70
2022-08-01T10:40:58.690Z,92.20
2022-08-01T10:44:02.853Z,92.80
2022-08-01T10:47:11.408Z,92.50
2022-08-01T10:50:26.800Z,92.80
2022-08-01T10:53:31.911Z,92.70
2022-08-01T10:56:48.780Z,93.10
2022-08-01T11:00:01.170Z,92.80
2022-08-01T11:03:04.653Z,92.20
2022-08-01T11:06:06.438Z,91.30
2022-08-01T11:09:16.476Z,91.00
2022-08-01T11:12:23.869Z,89.00
2022-08-01T11:15:29.710Z,90.80
2022-08-01T11:18:33.682Z,90.90
2022-08-01T11:22:01.151Z,91.50
2022-08-01T11:25:03.517Z,91.70
2022-08-01T11:28:32.810Z,91.60
2022-08-01T11:31:38.302Z,90.70
2022-08-01T11:34:58.598Z,91.40
2022-08-01T11:38:25.341Z,91.70
2022-08-01T11:41:38.090Z,90.60
2022-08-01T11:44:51.633Z,90.70
2022-08-01T11:47:53.734Z,91.10
2022-08-01T11:50:57.339Z,90.20
2022-08-01T11:53:59.831Z,90.40
2022-08-01T11:57:07.111Z,90.10
2022-08-01T12:00:16.946Z,90.00
2022-08-01T12:03:33.845Z,88.80
2022-08-01T12:06:35.834Z,89.60
2022-08-01T12:09:37.752Z,90.60
2022-08-01T12:12:52.749Z,88.20
2022-08-01T12:15:56.973Z,89.60
2022-08-01T12:18:58.727Z,88.90
2022-08-01T12:22:13.470Z,88.80
2022-08-01T12:25:20.590Z,87.00
2022-08-01T12:28:23.654Z,90.30
2022-08-01T12:31:35.265Z,88.50
2022-08-01T12:34:36.942Z,87.50
2022-08-01T12:37:40.730Z,86.70
2022-08-01T12:40:45.463Z,87.50
2022-08-01T12:43:48.859Z,87.40
2022-08-01T12:46:54.132Z,88.40
2022-08-01T12:50:03.791Z,88.60
2022-08-01T12:53:17.115Z,87.60
2022-08-01T12:56:36.740Z,86.40
2022-08-01T12:59:38.779Z,88.60
2022-08-01T13:02:41.816Z,87.30
2022-08-01T13:05:57.246Z,86.80
2022-08-01T13:09:11.123Z,85.80
2022-08-01T13:12:13.015Z,89.70
2022-08-01T13:15:22.306Z,88.10
2022-08-01T13:18:33.279Z,87.70
2022-08-01T13:21:53.608Z,86.00
2022-08-01T13:25:14.392Z,87.00
2022-08-01T13:28:19.447Z,87.80
2022-08-01T13:31:21.274Z,85.20
2022-08-01T13:34:34.368Z,84.10
2022-08-01T13:37:38.956Z,84.90
2022-08-01T13:40:41.257Z,85.60
2022-08-01T13:43:58.959Z,85.80
2022-08-01T13:47:02.456Z,86.00
2022-08-01T13:50:16.707Z,85.30
2022-08-01T13:53:18.633Z,84.00
2022-08-01T13:56:20.943Z,84.00
2022-08-01T13:59:22.526Z,83.20
2022-08-01T14:02:24.300Z,84.00
2022-08-01T14:05:31.630Z,83.00
2022-08-01T14:08:34.673Z,83.40
2022-08-01T14:11:37.615Z,85.30
2022-08-01T14:14:48.382Z,84.70
2022-08-01T14:17:52.978Z,82.80
2022-08-01T14:21:05.680Z,83.70
2022-08-01T14:24:09.080Z,82.50
2022-08-01T14:27:11.404Z,83.60
2022-08-01T14:30:14.397Z,83.60
2022-08-01T14:33:17.312Z,83.80
2022-08-01T14:36:30.078Z,83.30
2022-08-01T14:39:38.973Z,84.20
2022-08-01T14:42:48.622Z,83.90
2022-08-01T14:45:52.520Z,84.00
2022-08-01T14:48:58.350Z,83.30
2022-08-01T14:52:02.622Z,83.40
2022-08-01T14:55:11.420Z,83.00
2022-08-01T14:58:13.189Z,83.00
2022-08-01T15:01:16.005Z,82.70
2022-08-01T15:04:25.631Z,81.90
2022-08-01T15:07:32.002Z,82.60
2022-08-01T15:10:37.719Z,81.30
2022-08-01T15:13:42.995Z,81.30
2022-08-01T15:16:45.700Z,81.70
2022-08-01T15:19:54.759Z,82.10
2022-08-01T15:23:01.652Z,81.60
2022-08-01T15:26:04.318Z,80.00
2022-08-01T15:29:09.743Z,82.30
2022-08-01T15:32:15.537Z,83.40
2022-08-01T15:35:18.136Z,83.20
2022-08-01T15:38:25.577Z,83.10
2022-08-01T15:41:27.174Z,84.60
2022-08-01T15:44:28.819Z,84.00
2022-08-01T15:47:30.717Z,85.40
2022-08-01T15:50:32.413Z,84.00
2022-08-01T15:53:33.988Z,83.60
2022-08-01T15:56:36.012Z,83.60
2022-08-01T15:59:41.773Z,83.80
2022-08-01T16:02:44.539Z,83.50
2022-08-01T16:05:52.107Z,83.30
2022-08-01T16:08:54.172Z,81.70
2022-08-01T16:11:56.405Z,84.90
2022-08-01T16:14:59.522Z,83.10
2022-08-01T16:18:06.098Z,82.30
2022-08-01T16:21:07.886Z,82.40
2022-08-01T16:24:10.432Z,83.90
2022-08-01T16:27:12.766Z,83.60
2022-08-01T16:30:14.912Z,83.00
2022-08-01T16:33:45.992Z,83.50
2022-08-01T16:36:42.718Z,83.50
2022-08-01T16:39:50.025Z,83.50
2022-08-01T16:42:52.346Z,83.20
2022-08-01T16:45:54.507Z,82.50
2022-08-01T16:48:56.997Z,90.00
2022-08-01T16:52:01.014Z,82.60
2022-08-01T16:55:03.300Z,83.30
2022-08-01T16:58:11.996Z,82.80
2022-08-01T17:01:58.316Z,83.20
2022-08-01T17:04:41.072Z,83.30
2022-08-01T17:07:42.734Z,83.40
2022-08-01T17:10:45.374Z,83.50
2022-08-01T17:13:48.008Z,82.70
2022-08-01T17:16:50.231Z,84.30
2022-08-01T17:19:57.766Z,83.70
2022-08-01T17:23:03.869Z,82.50
2022-08-01T17:26:09.395Z,83.60
2022-08-01T17:29:11.409Z,83.70
2022-08-01T17:32:14.400Z,84.50
2022-08-01T17:35:17.006Z,84.60
2022-08-01T17:38:20.304Z,84.60
2022-08-01T17:41:22.262Z,84.40
2022-08-01T17:44:26.059Z,81.30
2022-08-01T17:47:48.475Z,80.50
2022-08-01T17:50:59.123Z,84.40
2022-08-01T17:54:01.465Z,77.60
2022-08-01T17:57:03.692Z,78.60
2022-08-01T18:00:11.012Z,81.00
2022-08-01T18:03:21.475Z,81.30
2022-08-01T18:06:35.883Z,82.80
2022-08-01T18:09:45.809Z,83.50
2022-08-01T18:12:48.348Z,83.40
2022-08-01T18:15:50.633Z,82.50
2022-08-01T18:18:53.073Z,83.60
2022-08-01T18:21:57.062Z,83.80
2022-08-01T18:24:59.541Z,84.40
2022-08-01T18:28:29.564Z,85.10
2022-08-01T18:31:29.857Z,85.30
2022-08-01T18:34:32.557Z,84.60
2022-08-01T18:37:54.534Z,85.00
2022-08-01T18:40:57.913Z,85.00
2022-08-01T18:44:05.586Z,85.40
2022-08-01T18:47:13.173Z,85.60
2022-08-01T18:50:15.620Z,85.70
2022-08-01T18:53:19.117Z,85.70
2022-08-01T18:56:24.604Z,87.50
2022-08-01T18:59:27.248Z,85.30
2022-08-01T19:02:29.936Z,86.10
2022-08-01T19:05:36.181Z,85.70
2022-08-01T19:08:40.899Z,86.30
2022-08-01T19:11:49.913Z,84.50
2022-08-01T19:14:53.738Z,85.30
2022-08-01T19:17:56.138Z,86.70
2022-08-01T19:20:58.733Z,88.40
2022-08-01T19:24:22.609Z,86.50
2022-08-01T19:27:30.549Z,87.40
2022-08-01T19:30:39.386Z,87.90
2022-08-01T19:33:43.719Z,85.70
2022-08-01T19:36:51.368Z,88.40
2022-08-01T19:39:53.515Z,89.40
2022-08-01T19:43:06.324Z,89.40
2022-08-01T19:46:08.656Z,87.60
2022-08-01T19:49:21.908Z,89.40
2022-08-01T19:52:27.059Z,90.00
2022-08-01T19:55:32.185Z,90.00
2022-08-01T19:58:43.602Z,90.20
2022-08-01T20:01:46.812Z,90.50
2022-08-01T20:04:49.812Z,90.90
2022-08-01T20:07:54.597Z,90.60
2022-08-01T20:11:01.891Z,90.40
2022-08-01T20:14:06.101Z,90.80
2022-08-01T20:17:08.841Z,90.90
2022-08-01T20:20:11.121Z,90.70
2022-08-01T20:23:18.624Z,90.70
2022-08-01T20:26:22.277Z,91.00
2022-08-01T20:29:25.664Z,91.00
2022-08-01T20:32:40.084Z,91.00
2022-08-01T20:35:52.263Z,92.10
2022-08-01T20:38:57.493Z,93.30
2022-08-01T20:42:01.000Z,91.30
2022-08-01T20:45:05.147Z,91.70
2022-08-01T20:48:08.745Z,91.20
2022-08-01T20:51:16.501Z,91.80
2022-08-01T20:54:18.877Z,90.70
2022-08-01T20:57:28.012Z,91.70
2022-08-01T21:00:32.185Z,91.60
2022-08-01T21:03:45.290Z,92.00
2022-08-01T21:07:01.068Z,92.40
2022-08-01T21:10:20.713Z,91.80
2022-08-01T21:13:38.831Z,92.00
2022-08-01T21:16:46.998Z,92.10
2022-08-01T21:19:55.551Z,92.70
2022-08-01T21:23:11.247Z,92.90
2022-08-01T21:26:19.890Z,91.70
2022-08-01T21:29:27.388Z,92.50
2022-08-01T21:32:31.249Z,94.40
2022-08-01T21:35:37.349Z,93.10
2022-08-01T21:38:46.321Z,92.60
2022-08-01T21:42:05.418Z,92.90
2022-08-01T21:45:10.077Z,92.80
2022-08-01T21:48:14.924Z,92.60
2022-08-01T21:51:51.927Z,93.20
2022-08-01T21:55:21.136Z,93.10
2022-08-01T21:58:44.589Z,92.30
2022-08-01T22:02:02.697Z,92.30
2022-08-01T22:05:09.925Z,93.50
2022-08-01T22:08:15.890Z,92.70
2022-08-01T22:11:25.582Z,93.60
2022-08-01T22:14:29.090Z,93.20
2022-08-01T22:17:31.770Z,93.10
2022-08-01T22:20:33.686Z,92.90
2022-08-01T22:23:36.841Z,93.30
2022-08-01T22:26:40.543Z,93.30
2022-08-01T22:29:42.307Z,93.50
2022-08-01T22:33:07.229Z,93.40
2022-08-01T22:36:08.521Z,93.60
2022-08-01T22:39:10.606Z,93.50
2022-08-01T22:42:12.976Z,94.00
2022-08-01T22:45:25.111Z,93.70
2022-08-01T22:48:36.356Z,93.00
2022-08-01T22:52:13.546Z,93.80
2022-08-01T22:55:25.066Z,93.10
2022-08-01T22:58:57.507Z,93.80
2022-08-01T23:02:03.727Z,92.70
2022-08-01T23:05:08.765Z,94.10
2022-08-01T23:08:16.491Z,96.30
2022-08-01T23:11:21.542Z,94.10
2022-08-01T23:14:25.568Z,94.00
2022-08-01T23:17:30.880Z,94.00
2022-08-01T23:20:35.904Z,94.70
2022-08-01T23:23:40.226Z,94.20
2022-08-01T23:26:51.201Z,94.40
2022-08-01T23:30:07.582Z,93.80
2022-08-01T23:33:09.984Z,94.60
2022-08-01T23:36:19.066Z,94.40
2022-08-01T23:39:25.796Z,94.30
2022-08-01T23:42:28.736Z,94.50
2022-08-01T23:45:38.227Z,94.30
2022-08-01T23:48:54.349Z,94.80
2022-08-01T23:52:02.376Z,94.50
2022-08-01T23:55:15.122Z,94.60
2022-08-01T23:58:18.084Z,94.60
